Terminal Aerodrome Forecast
Issued by NWS Jackson, MS

Home | Current Version | Previous Version | Text Only | Print | Product List | Glossary On
Versions: 1 2 3 4 5 6 7 8 9 10 11 12 13 14 15 16 17
669
FTUS44 KMEG 222330
TAFTUP
TAF
KTUP 222330Z 2300/2324 22005KT 6SM -SHRA SCT008 OVC025
     FM230100 25007KT P6SM -SHRA BKN008 OVC015
     FM230500 34018G28KT P6SM BKN006 OVC010
     FM231500 35011G17KT P6SM BKN015 OVC025=

USA.gov is the U.S. government's official web portal to all federal, state and local government web resources and services.